Gwinner, ND

2:51 AM CDT on July 23, 2017 (GMT -0500)
Gwinner-melroe

Weather History for KGWR - February, 2013

Change the Weather History Date:

Wednesday, February 27, 2013

  Actual Average (KP67) Record (KP67)
Temperature  
Mean Temperature 21 °F -  
Max Temperature 32 °F 27 °F 37 °F (1998)
Min Temperature 10 °F 10 °F -2 °F (1997)
Degree Days  
Heating Degree Days 44    
Moisture  
Dew Point 20 °F    
Average Humidity 90    
Maximum Humidity 100    
Minimum Humidity 80    
Precipitation  
Precipitation 0.00 in - - ()
Sea Level Pressure  
Sea Level Pressure 30.12 in    
Wind  
Wind Speed 10 mph (NNW)    
Max Wind Speed 21 mph    
Max Gust Speed 24 mph    
Visibility 10 miles    
Events      
Averages and records for this station are not official NWS values.
T = Trace of Precipitation, MM = Missing Value Source: NWS Daily Summary

Daily Weather History Graph

Daily Weather History Graph

Search for Another Location

Airport or City:

Trip Planner

Search our weather history database for the weather conditions in past years. The results will help you decide how hot, cold, wet, or windy it might be!

Date:

Astronomy

Feb. 27, 2013 Rise Set
Actual Time 7:12 AM CST 6:14 PM CST
Civil Twilight 6:42 AM CST 6:44 PM CST
Nautical Twilight 6:07 AM CST 7:19 PM CST
Astronomical Twilight 5:33 AM CST 7:54 PM CST
Moon 8:48 PM CST (2/27) 7:39 AM CST (2/27)
Length of Visible Light 12h 02m
Length of Day
11h 01m
Waning Gibbous, 96% of the Moon is Illuminated
Feb 27
Waning Gibbous
Mar 4
Last Quarter
Mar 11
New
Mar 19
First Quarter
Mar 27
Full

Hourly Weather History & Observations

Time (CST) Temp. Windchill Dew Point Humidity Pressure Visibility Wind Dir Wind Speed Gust Speed Precip Events Conditions
12:15 AM 12.2 °F 2.9 °F 10.4 °F 92% 30.07 in 10.0 mi NW 5.8 mph - 0.00 in   Clear
12:35 AM 12.2 °F - 10.4 °F 92% 30.06 in 9.0 mi Calm Calm - 0.00 in   Clear
12:55 AM 12.2 °F - 10.4 °F 92% 30.07 in 9.0 mi Calm Calm - 0.00 in   Clear
1:35 AM 10.4 °F 2.2 °F 8.6 °F 92% 30.07 in 8.0 mi NW 4.6 mph - 0.00 in   Clear
1:55 AM 12.2 °F 2.9 °F 10.4 °F 92% 30.07 in 8.0 mi NW 5.8 mph - 0.00 in   Clear
2:15 AM 12.2 °F 1.7 °F 10.4 °F 92% 30.07 in 7.0 mi NNW 6.9 mph - 0.00 in   Clear
2:35 AM 14.0 °F 3.9 °F 10.4 °F 86% 30.07 in 7.0 mi NW 6.9 mph - 0.00 in   Clear
2:55 AM 12.2 °F 4.3 °F 10.4 °F 92% 30.07 in 7.0 mi WNW 4.6 mph - 0.00 in   Clear
3:15 AM 12.2 °F -1.0 °F 10.4 °F 92% 30.07 in 8.0 mi NW 10.4 mph - 0.00 in   Clear
3:35 AM 14.0 °F 1.2 °F 12.2 °F 93% 30.06 in 10.0 mi NW 10.4 mph - 0.00 in   Clear
3:55 AM 15.8 °F 4.2 °F 14.0 °F 93% 30.06 in 10.0 mi NNW 9.2 mph - 0.00 in   Clear
4:15 AM 17.6 °F 5.0 °F 15.8 °F 93% 30.06 in 10.0 mi NNW 11.5 mph - 0.00 in   Clear
4:35 AM 17.6 °F 5.0 °F 17.6 °F 100% 30.06 in 10.0 mi NNW 11.5 mph - 0.00 in   Clear
4:55 AM 19.4 °F 7.2 °F 17.6 °F 93% 30.06 in 10.0 mi NNW 11.5 mph - 0.00 in   Clear
5:15 AM 21.2 °F 9.5 °F 19.4 °F 93% 30.07 in 10.0 mi NNW 11.5 mph - 0.00 in   Unknown
5:35 AM 17.6 °F 5.0 °F 17.6 °F 100% 30.08 in 10.0 mi NNW 11.5 mph - 0.00 in   Clear
5:55 AM 19.4 °F 7.2 °F 17.6 °F 93% 30.08 in 10.0 mi NNW 11.5 mph - 0.00 in   Clear
6:15 AM 17.6 °F 6.4 °F 17.6 °F 100% 30.09 in 9.0 mi NNW 9.2 mph - 0.00 in   Clear
6:35 AM 17.6 °F 5.0 °F 17.6 °F 100% 30.09 in 9.0 mi NNW 11.5 mph - 0.00 in   Unknown
6:55 AM 17.6 °F 4.3 °F 17.6 °F 100% 30.10 in 8.0 mi NNW 12.7 mph - 0.00 in   Clear
7:15 AM 17.6 °F 4.3 °F 15.8 °F 93% 30.10 in 7.0 mi NNW 12.7 mph - 0.00 in   Clear
7:35 AM 17.6 °F 5.0 °F 14.0 °F 86% 30.10 in 7.0 mi NNW 11.5 mph - 0.00 in   Unknown
8:15 AM 17.6 °F 7.3 °F 14.0 °F 86% 30.11 in 8.0 mi NW 8.1 mph - 0.00 in   Clear
8:35 AM 14.0 °F 5.1 °F 12.2 °F 93% 30.12 in 8.0 mi West 5.8 mph - 0.00 in   Clear
8:55 AM 15.8 °F 4.2 °F 14.0 °F 93% 30.12 in 8.0 mi WNW 9.2 mph - 0.00 in   Clear
9:15 AM 15.8 °F 5.1 °F 14.0 °F 93% 30.13 in 9.0 mi WNW 8.1 mph - 0.00 in   Clear
9:35 AM 15.8 °F 2.7 °F 14.0 °F 93% 30.13 in 9.0 mi NW 11.5 mph - 0.00 in   Clear
9:55 AM 17.6 °F 4.3 °F 14.0 °F 86% 30.13 in 10.0 mi NW 12.7 mph - 0.00 in   Clear
10:15 AM 17.6 °F 5.7 °F 15.8 °F 93% 30.13 in 10.0 mi NW 10.4 mph - 0.00 in   Partly Cloudy
10:35 AM 19.4 °F 8.6 °F 17.6 °F 93% 30.14 in 10.0 mi NW 9.2 mph - 0.00 in   Scattered Clouds
10:55 AM 21.2 °F 10.9 °F 17.6 °F 86% 30.13 in 10.0 mi NW 9.2 mph - 0.00 in   Clear
11:15 AM 21.2 °F 9.5 °F 17.6 °F 86% 30.13 in 9.0 mi NW 11.5 mph - 0.00 in   Clear
11:35 AM 23.0 °F 10.1 °F 19.4 °F 86% 30.13 in 10.0 mi NW 15.0 mph - 0.00 in   Clear
11:55 AM 24.8 °F 12.4 °F 21.2 °F 86% 30.13 in 10.0 mi NW 15.0 mph - 0.00 in   Scattered Clouds
12:55 PM 28.4 °F 17.0 °F 23.0 °F 80% 30.13 in 10.0 mi NNW 15.0 mph - 0.00 in   Clear
1:15 PM 28.4 °F 16.2 °F 23.0 °F 80% 30.13 in 9.0 mi NNW 17.3 mph - 0.00 in   Clear
1:35 PM 28.4 °F 15.1 °F 24.8 °F 86% 30.12 in 10.0 mi NNW 20.7 mph - 0.00 in   Clear
1:55 PM 30.2 °F 18.1 °F 24.8 °F 80% 30.12 in 10.0 mi NNW 18.4 mph 21.9 mph 0.00 in   Clear
2:15 PM 30.2 °F 17.8 °F 26.6 °F 86% 30.12 in 10.0 mi NNW 19.6 mph - 0.00 in   Clear
2:35 PM 30.2 °F 17.8 °F 26.6 °F 86% 30.11 in 10.0 mi NNW 19.6 mph - 0.00 in   Partly Cloudy
2:55 PM 30.2 °F 18.1 °F 26.6 °F 86% 30.12 in 10.0 mi NNW 18.4 mph - 0.00 in   Mostly Cloudy
3:15 PM 30.2 °F 18.5 °F 26.6 °F 86% 30.12 in 10.0 mi NNW 17.3 mph - 0.00 in   Mostly Cloudy
3:35 PM 30.2 °F 18.1 °F 28.4 °F 93% 30.12 in 10.0 mi NNW 18.4 mph - 0.00 in   Overcast
3:55 PM 32.0 °F 20.8 °F 26.6 °F 80% 30.12 in 10.0 mi NNW 17.3 mph - 0.00 in   Overcast
4:15 PM 30.2 °F 18.9 °F 26.6 °F 86% 30.12 in 10.0 mi NNW 16.1 mph - 0.00 in   Scattered Clouds
4:35 PM 30.2 °F 18.9 °F 26.6 °F 86% 30.13 in 10.0 mi NNW 16.1 mph 20.7 mph 0.00 in   Partly Cloudy
4:55 PM 30.2 °F 20.2 °F 26.6 °F 86% 30.13 in 10.0 mi NNW 12.7 mph - 0.00 in   Mostly Cloudy
5:15 PM 30.2 °F 19.8 °F 28.4 °F 93% 30.14 in 10.0 mi NNW 13.8 mph 21.9 mph 0.00 in   Overcast
5:35 PM 30.2 °F 18.9 °F 28.4 °F 93% 30.14 in 10.0 mi NNW 16.1 mph - 0.00 in   Overcast
5:55 PM 30.2 °F 18.9 °F 28.4 °F 93% 30.15 in 10.0 mi NNW 16.1 mph - 0.00 in   Overcast
6:15 PM 30.2 °F 18.5 °F 28.4 °F 93% 30.15 in 10.0 mi North 17.3 mph - 0.00 in   Overcast
6:35 PM 30.2 °F 17.8 °F 26.6 °F 86% 30.16 in 10.0 mi NNW 19.6 mph 24.2 mph 0.00 in   Overcast
6:55 PM 30.2 °F 18.5 °F 26.6 °F 86% 30.16 in 10.0 mi North 17.3 mph - 0.00 in   Overcast
7:15 PM 30.2 °F 19.3 °F 26.6 °F 86% 30.16 in 10.0 mi North 15.0 mph - 0.00 in   Unknown
7:35 PM 28.4 °F 15.8 °F 26.6 °F 93% 30.17 in 10.0 mi North 18.4 mph - 0.00 in   Unknown
7:55 PM 28.4 °F 16.6 °F 24.8 °F 86% 30.18 in 10.0 mi North 16.1 mph - 0.00 in   Mostly Cloudy
8:15 PM 26.6 °F 14.3 °F 23.0 °F 86% 30.18 in 10.0 mi North 16.1 mph 20.7 mph 0.00 in   Partly Cloudy
8:35 PM 26.6 °F 14.3 °F 23.0 °F 86% 30.18 in 10.0 mi North 16.1 mph - 0.00 in   Clear
8:55 PM 24.8 °F 11.5 °F 21.2 °F 86% 30.18 in 10.0 mi North 17.3 mph 23.0 mph 0.00 in   Clear
9:15 PM 24.8 °F 12.9 °F 21.2 °F 86% 30.18 in 10.0 mi North 13.8 mph 20.7 mph 0.00 in   Clear
9:35 PM 24.8 °F 12.4 °F 21.2 °F 86% 30.18 in 10.0 mi North 15.0 mph - 0.00 in   Clear
9:55 PM 23.0 °F 9.6 °F 21.2 °F 93% 30.18 in 10.0 mi North 16.1 mph - 0.00 in   Clear
10:15 PM 23.0 °F 10.6 °F 21.2 °F 93% 30.18 in 10.0 mi North 13.8 mph - 0.00 in   Clear
10:35 PM 23.0 °F 11.1 °F 19.4 °F 86% 30.18 in 10.0 mi NNW 12.7 mph - 0.00 in   Clear
10:55 PM 21.2 °F 8.9 °F 19.4 °F 93% 30.18 in 10.0 mi NNW 12.7 mph - 0.00 in   Clear
11:15 PM 23.0 °F 10.6 °F 19.4 °F 86% 30.18 in 10.0 mi NNW 13.8 mph - 0.00 in   Clear
11:35 PM 21.2 °F 8.9 °F 19.4 °F 93% 30.18 in 10.0 mi NNW 12.7 mph - 0.00 in   Clear
11:55 PM 21.2 °F 7.8 °F 19.4 °F 93% 30.18 in 10.0 mi NNW 15.0 mph - 0.00 in   Clear